Time;durP1;ratioP1;P1;durP2;ratioP2;P2;SDS_P1;SDS_P2;PMS_P1;PMS_P2;Temp;Humidity;BMP_temperature;BMP_pressure;BME280_temperature;BME280_humidity;BME280_pressure;Samples;Min_cycle;Max_cycle;Signal;HPM_P1;HPM_P2
2022/06/03 00:01:45;;;;;;;0.60;0.10;;;16.90;99.90;;;;;;5008837;28;20444;-68
2022/06/03 00:04:37;;;;;;;0.60;0.20;;;16.80;99.90;;;;;;5007009;28;20553;-67
2022/06/03 00:07:23;;;;;;;0.60;0.10;;;16.80;99.90;;;;;;5002306;28;20848;-69
2022/06/03 00:10:25;;;;;;;0.60;0.10;;;16.80;99.90;;;;;;5015690;28;20520;-69
2022/06/03 00:13:02;;;;;;;0.60;0.10;;;16.70;99.90;;;;;;4999515;28;20448;-70
2022/06/03 00:16:16;;;;;;;0.60;0.10;;;16.60;99.90;;;;;;5019232;28;20479;-68
2022/06/03 00:19:21;;;;;;;0.60;0.10;;;16.60;99.90;;;;;;5022117;28;20983;-68
2022/06/03 00:22:03;;;;;;;1.57;0.87;;;16.60;99.90;;;;;;5027226;28;20787;-67
2022/06/03 00:24:46;;;;;;;1.10;0.77;;;16.50;99.90;;;;;;5033873;28;20586;-66
2022/06/03 00:27:35;;;;;;;0.60;0.10;;;16.50;99.90;;;;;;5015056;28;20471;-68
2022/06/03 00:30:18;;;;;;;0.60;0.17;;;16.40;99.90;;;;;;5017303;28;20466;-69
2022/06/03 00:33:07;;;;;;;0.60;0.10;;;16.40;99.90;;;;;;5024144;28;20480;-67
2022/06/03 00:35:56;;;;;;;0.60;0.27;;;16.40;99.90;;;;;;5014268;28;20576;-67
2022/06/03 00:38:47;;;;;;;0.60;0.10;;;16.40;99.90;;;;;;5022979;28;20456;-67
2022/06/03 00:41:34;;;;;;;0.60;0.20;;;16.30;99.90;;;;;;5013894;28;20447;-69
2022/06/03 00:44:43;;;;;;;0.60;0.10;;;16.30;99.90;;;;;;4999062;28;20451;-65
2022/06/03 00:47:34;;;;;;;0.60;0.10;;;16.30;99.90;;;;;;5013542;28;20475;-68
2022/06/03 00:50:45;;;;;;;0.60;0.17;;;16.30;99.90;;;;;;5017836;28;20461;-69
2022/06/03 00:53:49;;;;;;;0.60;0.10;;;16.30;99.90;;;;;;4986576;28;20953;-69
2022/06/03 00:56:52;;;;;;;0.60;0.10;;;16.20;99.90;;;;;;5032019;28;20508;-68
2022/06/03 00:59:33;;;;;;;0.67;0.47;;;16.20;99.90;;;;;;4993729;28;20547;-67
2022/06/03 01:02:14;;;;;;;0.60;0.30;;;16.20;99.90;;;;;;5011287;28;20448;-70
2022/06/03 01:05:01;;;;;;;0.60;0.20;;;16.20;99.90;;;;;;5022255;28;20486;-68
2022/06/03 01:07:41;;;;;;;0.60;0.10;;;16.20;99.90;;;;;;5011986;28;20537;-68
2022/06/03 01:10:30;;;;;;;0.60;0.13;;;16.20;99.90;;;;;;5012164;28;20448;-68
2022/06/03 01:13:15;;;;;;;0.60;0.10;;;16.10;99.90;;;;;;5012696;28;20459;-69
2022/06/03 01:15:50;;;;;;;2.00;1.80;;;16.10;99.90;;;;;;5002895;28;20478;-68
2022/06/03 01:18:34;;;;;;;0.60;0.20;;;15.20;99.90;;;;;;5030323;28;20458;-66
2022/06/03 01:21:10;;;;;;;0.60;0.10;;;16.20;99.90;;;;;;5013482;28;20981;-68
2022/06/03 01:24:14;;;;;;;0.60;0.10;;;16.10;99.90;;;;;;5028203;28;20453;-68
2022/06/03 01:27:27;;;;;;;0.60;0.10;;;16.10;99.90;;;;;;4982257;28;20467;-69
2022/06/03 01:30:14;;;;;;;0.60;0.20;;;16.10;99.90;;;;;;4919145;29;20457;-66
2022/06/03 01:32:56;;;;;;;0.60;0.13;;;16.10;99.90;;;;;;5024258;28;20534;-66
2022/06/03 01:35:46;;;;;;;0.60;0.10;;;16.10;99.90;;;;;;5020850;28;20606;-69
2022/06/03 01:38:22;;;;;;;0.60;0.10;;;16.10;99.90;;;;;;5031652;28;20449;-66
2022/06/03 01:41:14;;;;;;;0.60;0.13;;;16.10;99.90;;;;;;5008636;28;20554;-68
2022/06/03 01:44:09;;;;;;;0.60;0.10;;;16.10;99.90;;;;;;5012638;28;20574;-67
2022/06/03 01:46:46;;;;;;;0.60;0.10;;;16.10;99.90;;;;;;5021668;28;20464;-68
2022/06/03 01:49:57;;;;;;;0.60;0.10;;;16.00;99.90;;;;;;5012084;28;20461;-67
2022/06/03 01:53:14;;;;;;;0.60;0.20;;;16.00;99.90;;;;;;5012255;28;20458;-67
2022/06/03 01:56:24;;;;;;;0.60;0.10;;;18.30;99.90;;;;;;5021253;28;20482;-67
2022/06/03 01:59:15;;;;;;;0.60;0.10;;;16.00;99.90;;;;;;5012479;28;20558;-68
2022/06/03 02:02:26;;;;;;;1.63;1.53;;;15.90;99.90;;;;;;5012681;28;20442;-67
2022/06/03 02:05:22;;;;;;;0.60;0.20;;;15.90;99.90;;;;;;5013163;28;20451;-72
2022/06/03 02:08:09;;;;;;;0.60;0.10;;;15.80;99.90;;;;;;4979870;28;20478;-70
2022/06/03 02:11:18;;;;;;;0.60;0.10;;;15.80;99.90;;;;;;5028777;28;20451;-67
2022/06/03 02:14:29;;;;;;;0.60;0.10;;;15.80;99.90;;;;;;5023554;28;20472;-68
2022/06/03 02:17:24;;;;;;;0.60;0.20;;;15.70;99.90;;;;;;5028276;28;20564;-67
2022/06/03 02:20:24;;;;;;;0.60;0.10;;;15.70;99.90;;;;;;5022650;28;20955;-65
2022/06/03 02:23:49;;;;;;;0.60;0.10;;;15.70;99.90;;;;;;5012095;28;20454;-69
2022/06/03 02:26:56;;;;;;;0.60;0.10;;;15.70;99.90;;;;;;4931073;29;20479;-67
2022/06/03 02:33:17;;;;;;;0.60;0.10;;;15.70;99.90;;;;;;5020446;28;20455;-67
2022/06/03 02:36:07;;;;;;;0.60;0.10;;;15.70;99.90;;;;;;5031066;28;20602;-68
2022/06/03 02:38:49;;;;;;;0.60;0.20;;;15.70;99.90;;;;;;5000336;28;20496;-70
2022/06/03 02:41:36;;;;;;;0.60;0.10;;;15.70;99.90;;;;;;5027494;28;20511;-67
2022/06/03 02:44:36;;;;;;;0.60;0.10;;;15.80;99.90;;;;;;5011308;28;20450;-67
2022/06/03 02:47:37;;;;;;;0.60;0.10;;;15.80;99.90;;;;;;4999387;28;20470;-67
2022/06/03 02:50:29;;;;;;;0.60;0.10;;;15.80;99.90;;;;;;5011550;28;20452;-67
2022/06/03 02:53:34;;;;;;;0.60;0.20;;;15.80;99.90;;;;;;5006587;28;20900;-66
2022/06/03 02:56:22;;;;;;;0.60;0.10;;;15.90;99.90;;;;;;5019660;28;20490;-68
2022/06/03 02:59:26;;;;;;;0.80;0.57;;;15.90;99.90;;;;;;5031008;28;20455;-66
2022/06/03 03:02:17;;;;;;;0.60;0.10;;;15.80;99.90;;;;;;5031087;28;20546;-68
2022/06/03 03:04:59;;;;;;;0.80;0.53;;;15.80;99.90;;;;;;4997784;28;20459;-68
2022/06/03 03:07:54;;;;;;;0.60;0.13;;;15.80;99.90;;;;;;5011674;28;20989;-68
2022/06/03 03:10:46;;;;;;;0.60;0.17;;;15.70;99.90;;;;;;5018851;28;20922;-68
2022/06/03 03:13:58;;;;;;;0.60;0.20;;;15.70;99.90;;;;;;5011265;28;20452;-67
2022/06/03 03:17:01;;;;;;;0.60;0.10;;;15.60;99.90;;;;;;5018513;28;20489;-67
2022/06/03 03:20:08;;;;;;;0.60;0.20;;;15.60;99.90;;;;;;5021848;28;20454;-69
2022/06/03 03:23:11;;;;;;;0.60;0.20;;;15.60;99.90;;;;;;5014876;28;20490;-68
2022/06/03 03:25:59;;;;;;;0.60;0.10;;;15.50;99.90;;;;;;5028325;28;20454;-67
2022/06/03 03:28:54;;;;;;;0.60;0.10;;;15.50;99.90;;;;;;5012752;28;20448;-67
2022/06/03 03:31:51;;;;;;;0.60;0.20;;;15.50;99.90;;;;;;5012383;28;20459;-67
2022/06/03 03:34:30;;;;;;;0.60;0.10;;;15.40;99.90;;;;;;4992569;28;20448;-67
2022/06/03 03:37:31;;;;;;;0.60;0.20;;;15.40;99.90;;;;;;5021762;28;20577;-67
2022/06/03 03:40:27;;;;;;;0.60;0.20;;;15.40;99.90;;;;;;5026284;28;20576;-66
2022/06/03 03:43:32;;;;;;;0.60;0.10;;;15.30;99.90;;;;;;5014000;28;20547;-68
2022/06/03 03:46:18;;;;;;;0.73;0.60;;;;;;;;;;5014671;28;20464;-67
2022/06/03 03:49:09;;;;;;;0.60;0.20;;;15.30;99.90;;;;;;5001609;28;20441;-66
2022/06/03 03:52:05;;;;;;;0.60;0.10;;;15.30;99.90;;;;;;5032276;28;20456;-69
2022/06/03 03:55:07;;;;;;;0.60;0.10;;;15.30;99.90;;;;;;4992736;28;20973;-67
2022/06/03 03:58:03;;;;;;;0.60;0.10;;;15.20;99.90;;;;;;5011338;28;20833;-67
2022/06/03 04:01:03;;;;;;;0.60;0.20;;;15.20;99.90;;;;;;5010250;28;20459;-69
2022/06/03 04:03:59;;;;;;;0.60;0.10;;;15.20;99.90;;;;;;5011350;28;20462;-68
2022/06/03 04:06:54;;;;;;;0.60;0.10;;;15.20;99.90;;;;;;5010777;28;20481;-74
2022/06/03 04:09:49;;;;;;;0.60;0.10;;;15.20;99.90;;;;;;5011954;28;20454;-69
2022/06/03 04:12:44;;;;;;;2.87;2.67;;;15.10;99.90;;;;;;5008198;28;20463;-67
2022/06/03 04:15:55;;;;;;;0.60;0.10;;;15.10;99.90;;;;;;5007755;28;20967;-70
2022/06/03 04:18:52;;;;;;;0.60;0.20;;;15.10;99.90;;;;;;5013831;28;21115;-69
2022/06/03 04:21:57;;;;;;;0.60;0.10;;;15.10;99.90;;;;;;5023904;28;20459;-68
2022/06/03 04:24:48;;;;;;;0.60;0.20;;;15.10;99.90;;;;;;5014684;28;20454;-68
2022/06/03 04:27:49;;;;;;;0.60;0.10;;;15.10;99.90;;;;;;5013543;28;21013;-67
2022/06/03 04:31:02;;;;;;;0.60;0.10;;;15.10;99.90;;;;;;5011684;28;20459;-69
2022/06/03 04:33:56;;;;;;;0.60;0.10;;;15.10;99.90;;;;;;5030310;28;20570;-68
2022/06/03 04:36:56;;;;;;;0.60;0.10;;;15.20;99.90;;;;;;5027662;28;20493;-68
2022/06/03 04:40:04;;;;;;;0.70;0.47;;;15.20;99.90;;;;;;5011857;28;20447;-67
2022/06/03 04:43:22;;;;;;;0.60;0.10;;;15.20;99.90;;;;;;4996782;28;20531;-70
2022/06/03 04:46:29;;;;;;;0.60;0.10;;;15.20;99.90;;;;;;4934369;29;21070;-66
2022/06/03 04:49:24;;;;;;;0.60;0.20;;;15.20;99.90;;;;;;5013564;28;20454;-71
2022/06/03 04:52:38;;;;;;;0.60;0.10;;;15.20;99.90;;;;;;5013505;28;20940;-69
2022/06/03 04:55:49;;;;;;;0.60;0.10;;;15.30;99.90;;;;;;5027111;28;20446;-70
2022/06/03 04:58:46;;;;;;;0.60;0.13;;;15.30;99.90;;;;;;5004629;28;20463;-69
2022/06/03 05:01:49;;;;;;;0.60;0.20;;;15.30;99.90;;;;;;5013307;28;20462;-70
2022/06/03 05:04:59;;;;;;;0.60;0.10;;;15.40;99.90;;;;;;5012990;28;20458;-70
2022/06/03 05:08:15;;;;;;;0.60;0.10;;;15.50;99.90;;;;;;5023227;28;20470;-70
2022/06/03 05:11:22;;;;;;;0.60;0.20;;;15.60;99.90;;;;;;5009347;28;20440;-69
2022/06/03 05:14:24;;;;;;;0.60;0.10;;;15.60;99.90;;;;;;5003323;28;20547;-68
2022/06/03 05:17:26;;;;;;;0.60;0.10;;;15.70;99.90;;;;;;5011157;28;20485;-70
2022/06/03 05:20:25;;;;;;;0.60;0.10;;;15.70;99.90;;;;;;5011879;28;20823;-70
2022/06/03 05:23:15;;;;;;;0.60;0.20;;;15.80;99.90;;;;;;5015416;28;20452;-71
2022/06/03 05:26:21;;;;;;;0.60;0.20;;;15.80;99.90;;;;;;5013516;28;20444;-69
2022/06/03 05:29:17;;;;;;;0.60;0.10;;;15.80;99.90;;;;;;5007252;28;20451;-68
2022/06/03 05:32:17;;;;;;;0.60;0.10;;;15.90;99.90;;;;;;5007705;28;20502;-71
2022/06/03 05:35:31;;;;;;;0.60;0.10;;;15.90;99.90;;;;;;5012561;28;20458;-70
2022/06/03 05:38:31;;;;;;;0.60;0.10;;;16.00;99.90;;;;;;5012455;28;20482;-71
2022/06/03 05:44:22;;;;;;;0.60;0.10;;;16.20;99.90;;;;;;5009488;28;20451;-71
2022/06/03 05:47:00;;;;;;;0.60;0.10;;;16.20;99.90;;;;;;4997390;28;20468;-71
2022/06/03 05:49:41;;;;;;;0.60;0.20;;;16.30;99.90;;;;;;5012263;28;20491;-70
2022/06/03 05:52:28;;;;;;;0.60;0.10;;;16.40;99.90;;;;;;5013294;28;20862;-70
2022/06/03 05:55:28;;;;;;;0.60;0.10;;;16.40;99.90;;;;;;5023864;28;20446;-69
2022/06/03 05:58:17;;;;;;;0.60;0.10;;;16.40;99.90;;;;;;5007856;28;20567;-69
2022/06/03 06:01:16;;;;;;;0.60;0.10;;;16.50;99.90;;;;;;5015931;28;20487;-79
2022/06/03 06:03:52;;;;;;;0.60;0.10;;;16.50;99.90;;;;;;5015446;28;20456;-76
2022/06/03 06:06:28;;;;;;;0.60;0.10;;;16.70;99.90;;;;;;5010977;28;20478;-75
2022/06/03 06:09:16;;;;;;;0.60;0.10;;;16.70;99.90;;;;;;5010524;28;20942;-75
2022/06/03 06:12:02;;;;;;;0.60;0.20;;;16.70;99.90;;;;;;5012266;28;20450;-74
2022/06/03 06:14:41;;;;;;;0.60;0.20;;;16.60;99.90;;;;;;5010623;28;20456;-76
2022/06/03 06:17:37;;;;;;;0.60;0.10;;;16.60;99.90;;;;;;5011013;28;20859;-74
2022/06/03 06:20:17;;;;;;;0.60;0.20;;;16.50;99.90;;;;;;5013591;28;20467;-72
2022/06/03 06:22:48;;;;;;;0.60;0.10;;;16.50;99.90;;;;;;5013125;28;21028;-73
2022/06/03 06:25:23;;;;;;;0.60;0.30;;;16.70;99.90;;;;;;5014895;28;20782;-73
2022/06/03 06:28:01;;;;;;;0.60;0.10;;;16.80;99.90;;;;;;5014831;28;20537;-74
2022/06/03 06:30:50;;;;;;;0.60;0.10;;;16.80;99.90;;;;;;5015749;28;20504;-73
2022/06/03 06:33:44;;;;;;;0.60;0.10;;;17.00;99.90;;;;;;5021518;28;20478;-74
2022/06/03 06:36:44;;;;;;;0.60;0.17;;;17.00;99.90;;;;;;5006917;28;20869;-75
2022/06/03 06:39:27;;;;;;;0.60;0.10;;;17.10;99.90;;;;;;4996107;28;20453;-75
2022/06/03 06:42:04;;;;;;;0.60;0.10;;;17.20;99.90;;;;;;4997909;28;20479;-74
2022/06/03 06:44:36;;;;;;;0.60;0.10;;;17.20;99.90;;;;;;5009898;28;20924;-74
2022/06/03 06:47:14;;;;;;;0.60;0.10;;;17.30;99.90;;;;;;5014221;28;20552;-76
2022/06/03 06:49:53;;;;;;;0.60;0.10;;;17.40;99.90;;;;;;5015528;28;20452;-76
2022/06/03 06:52:41;;;;;;;0.60;0.10;;;17.40;99.90;;;;;;5031097;28;20526;-75
2022/06/03 06:55:17;;;;;;;0.60;0.10;;;17.50;99.90;;;;;;5034269;28;20465;-74
2022/06/03 06:57:48;;;;;;;0.60;0.10;;;17.60;99.90;;;;;;5016701;28;20512;-74
2022/06/03 07:00:24;;;;;;;0.60;0.20;;;17.70;99.90;;;;;;5016887;28;20579;-76
2022/06/03 07:02:57;;;;;;;0.60;0.10;;;17.90;99.90;;;;;;5034298;28;20541;-74
2022/06/03 07:05:29;;;;;;;0.60;0.20;;;;;;;;;;5015902;28;20926;-74
2022/06/03 07:08:02;;;;;;;0.60;0.10;;;18.00;99.90;;;;;;5014405;28;20879;-73
2022/06/03 07:10:36;;;;;;;0.60;0.10;;;18.10;99.90;;;;;;5016690;28;20447;-76
2022/06/03 07:13:10;;;;;;;0.60;0.10;;;18.20;99.90;;;;;;5013287;28;20470;-75
2022/06/03 07:16:00;;;;;;;0.60;0.20;;;18.20;99.90;;;;;;5015928;28;20539;-74
2022/06/03 07:21:38;;;;;;;0.60;0.10;;;18.30;99.90;;;;;;5027721;28;20530;-75
2022/06/03 07:24:16;;;;;;;0.60;0.20;;;18.30;99.90;;;;;;5012905;28;20524;-74
2022/06/03 07:26:48;;;;;;;0.60;0.10;;;18.70;99.90;;;;;;5016199;28;20479;-75
2022/06/03 07:29:20;;;;;;;0.60;0.10;;;18.30;99.90;;;;;;5006484;28;20449;-75
2022/06/03 07:31:57;;;;;;;0.83;0.40;;;18.30;99.90;;;;;;5030723;28;20452;-74
2022/06/03 07:34:31;;;;;;;0.60;0.10;;;18.30;99.90;;;;;;5017614;28;20440;-74
2022/06/03 07:37:09;;;;;;;0.60;0.10;;;18.30;99.90;;;;;;4992431;28;20704;-73
2022/06/03 07:39:47;;;;;;;0.60;0.10;;;18.20;99.90;;;;;;5016548;28;20447;-72
2022/06/03 07:42:23;;;;;;;0.60;0.10;;;18.30;99.90;;;;;;5012934;28;20581;-73
2022/06/03 07:45:02;;;;;;;0.70;0.50;;;18.20;99.90;;;;;;5030366;28;20451;-74
2022/06/03 07:47:34;;;;;;;0.60;0.10;;;18.30;99.90;;;;;;5024799;28;20811;-72
2022/06/03 07:50:08;;;;;;;0.60;0.10;;;18.30;99.90;;;;;;5017483;28;20498;-74
2022/06/03 07:52:41;;;;;;;0.60;0.10;;;18.40;99.90;;;;;;5017678;28;20498;-74
2022/06/03 07:55:14;;;;;;;0.60;0.10;;;18.50;99.90;;;;;;5020818;28;20447;-74
2022/06/03 07:57:42;;;;;;;0.60;0.10;;;;;;;;;;5025936;28;20488;-70
2022/06/03 08:00:17;;;;;;;0.60;0.20;;;18.70;99.90;;;;;;5031636;28;20530;-71
2022/06/03 08:02:46;;;;;;;0.60;0.10;;;18.80;99.90;;;;;;5015617;28;20516;-70
2022/06/03 08:05:16;;;;;;;0.70;0.30;;;;;;;;;;5017487;28;20900;-73
2022/06/03 08:13:23;;;;;;;0.60;0.10;;;19.00;99.90;;;;;;5011330;28;20548;-74
2022/06/03 08:15:56;;;;;;;0.60;0.10;;;;;;;;;;5028731;28;20566;-73
2022/06/03 08:18:27;;;;;;;0.63;0.20;;;19.10;99.90;;;;;;5012743;28;20507;-74
2022/06/03 08:21:01;;;;;;;0.70;0.10;;;19.20;99.90;;;;;;5017708;28;20463;-73
2022/06/03 08:23:33;;;;;;;0.60;0.10;;;19.20;99.90;;;;;;5021220;28;20447;-72
2022/06/03 08:26:05;;;;;;;0.60;0.20;;;19.40;99.90;;;;;;5020160;28;20829;-71
2022/06/03 08:28:36;;;;;;;0.70;0.10;;;19.40;99.90;;;;;;5022612;28;20463;-72
2022/06/03 08:31:07;;;;;;;0.70;0.30;;;19.50;99.90;;;;;;5033450;28;20566;-71
2022/06/03 08:33:45;;;;;;;0.60;0.10;;;19.60;99.90;;;;;;5018543;28;20452;-73
2022/06/03 08:36:17;;;;;;;0.70;0.20;;;18.90;99.90;;;;;;5017403;28;20486;-73
2022/06/03 08:38:50;;;;;;;0.70;0.20;;;20.00;99.90;;;;;;5037527;28;20489;-73
2022/06/03 08:41:34;;;;;;;0.70;0.10;;;20.10;99.90;;;;;;5036355;28;20546;-73
2022/06/03 08:44:17;;;;;;;0.70;0.10;;;20.20;99.90;;;;;;5036503;28;20986;-73
2022/06/03 08:46:58;;;;;;;0.80;0.30;;;20.20;99.90;;;;;;4996069;28;20460;-72
2022/06/03 08:49:44;;;;;;;0.70;0.20;;;20.30;99.90;;;;;;4998065;28;20445;-72
2022/06/03 08:52:14;;;;;;;0.70;0.10;;;20.40;99.90;;;;;;5035149;28;20477;-72
2022/06/03 08:54:46;;;;;;;0.70;0.10;;;20.40;99.90;;;;;;5034350;28;20946;-72
2022/06/03 08:57:19;;;;;;;1.00;0.50;;;20.60;99.90;;;;;;5035505;28;20471;-73
2022/06/03 08:59:51;;;;;;;0.70;0.20;;;20.60;99.90;;;;;;5014214;28;20543;-74
2022/06/03 09:02:31;;;;;;;0.70;0.10;;;20.80;99.90;;;;;;5016213;28;20452;-72
2022/06/03 09:05:08;;;;;;;0.70;0.10;;;20.90;99.90;;;;;;5013556;28;20518;-71
2022/06/03 09:07:44;;;;;;;0.70;0.10;;;21.10;99.90;;;;;;5013946;28;20467;-72
2022/06/03 09:10:19;;;;;;;0.80;0.30;;;21.20;99.90;;;;;;5014526;28;20969;-71
2022/06/03 09:13:01;;;;;;;0.70;0.10;;;21.20;99.90;;;;;;5032558;28;20489;-72
2022/06/03 09:15:35;;;;;;;0.70;0.30;;;21.40;99.90;;;;;;5003691;28;20460;-72
2022/06/03 09:18:07;;;;;;;0.70;0.20;;;21.40;99.90;;;;;;5012923;28;20476;-72
2022/06/03 09:20:42;;;;;;;0.70;0.10;;;21.40;99.90;;;;;;5013195;28;20456;-72
2022/06/03 09:23:14;;;;;;;0.70;0.10;;;21.50;99.90;;;;;;5013576;28;20467;-74
2022/06/03 09:25:47;;;;;;;0.70;0.20;;;21.60;99.90;;;;;;5013999;28;20527;-73
2022/06/03 09:28:18;;;;;;;0.70;0.10;;;21.60;99.90;;;;;;5016936;28;20444;-73
2022/06/03 09:30:47;;;;;;;0.70;0.10;;;21.60;99.90;;;;;;5013870;28;20449;-74
2022/06/03 09:33:19;;;;;;;0.70;0.10;;;21.80;99.90;;;;;;5017009;28;20452;-74
2022/06/03 09:35:52;;;;;;;0.70;0.20;;;22.00;99.90;;;;;;5028099;28;20463;-73
2022/06/03 09:38:24;;;;;;;0.70;0.20;;;22.00;99.90;;;;;;5036732;28;20566;-72
2022/06/03 09:40:57;;;;;;;0.70;0.13;;;22.00;99.90;;;;;;5020364;28;20977;-72
2022/06/03 09:43:28;;;;;;;0.70;0.30;;;22.10;99.90;;;;;;5013158;28;20428;-75
2022/06/03 09:45:59;;;;;;;0.70;0.27;;;22.20;99.90;;;;;;5014250;28;20475;-73
2022/06/03 09:48:31;;;;;;;0.70;0.10;;;22.30;99.90;;;;;;5016950;28;20445;-73
2022/06/03 09:51:08;;;;;;;0.70;0.10;;;23.90;99.90;;;;;;5013820;28;20476;-73
2022/06/03 09:53:42;;;;;;;0.70;0.17;;;22.40;99.90;;;;;;5014194;28;20444;-73
2022/06/03 09:56:18;;;;;;;0.70;0.20;;;22.50;99.90;;;;;;5019351;28;21018;-73
2022/06/03 09:58:49;;;;;;;0.70;0.20;;;22.50;99.90;;;;;;5033170;28;20515;-73
2022/06/03 10:01:17;;;;;;;0.70;0.10;;;22.70;99.90;;;;;;5020142;28;20962;-73
2022/06/03 10:03:57;;;;;;;0.70;0.13;;;22.90;99.90;;;;;;5013890;28;20523;-74
2022/06/03 10:06:46;;;;;;;0.70;0.20;;;23.00;99.90;;;;;;5024442;28;20467;-74
2022/06/03 10:17:36;;;;;;;0.70;0.10;;;23.30;99.90;;;;;;5015286;28;20468;-74
2022/06/03 10:20:08;;;;;;;0.70;0.10;;;23.40;99.90;;;;;;5013626;28;20475;-74
2022/06/03 10:22:38;;;;;;;0.70;0.20;;;23.50;99.90;;;;;;4994741;28;20445;-73
2022/06/03 10:25:07;;;;;;;0.80;0.40;;;23.70;99.90;;;;;;5013322;28;20452;-74
2022/06/03 10:27:36;;;;;;;0.70;0.10;;;;;;;;;;5024718;28;20476;-75
2022/06/03 10:30:06;;;;;;;0.70;0.10;;;23.70;99.90;;;;;;5020982;28;20448;-75
2022/06/03 10:32:36;;;;;;;0.70;0.10;;;23.80;99.90;;;;;;5025524;28;20452;-75
2022/06/03 10:35:13;;;;;;;0.70;0.10;;;23.90;99.90;;;;;;5041830;28;20451;-75
2022/06/03 10:37:54;;;;;;;0.80;0.23;;;23.90;99.90;;;;;;5032736;28;20495;-75
2022/06/03 10:40:24;;;;;;;0.70;0.20;;;23.90;99.90;;;;;;5005171;28;20476;-74
2022/06/03 10:42:57;;;;;;;0.70;0.20;;;23.80;99.90;;;;;;5017369;28;20983;-73
2022/06/03 10:45:28;;;;;;;0.70;0.20;;;23.90;99.90;;;;;;5027576;28;20479;-75
2022/06/03 10:47:56;;;;;;;0.70;0.10;;;23.90;99.90;;;;;;5032712;28;20455;-74
2022/06/03 10:50:29;;;;;;;0.70;0.10;;;24.20;99.90;;;;;;5025527;28;20536;-72
2022/06/03 11:01:33;;;;;;;0.70;0.10;;;24.20;99.90;;;;;;5008778;28;20461;-74
2022/06/03 11:04:03;;;;;;;2.30;0.77;;;24.30;99.90;;;;;;5014683;28;20464;-73
2022/06/03 11:06:36;;;;;;;0.70;0.10;;;24.30;99.90;;;;;;5010826;28;20484;-74
2022/06/03 11:09:09;;;;;;;0.70;0.10;;;24.40;99.90;;;;;;5021841;28;20454;-75
2022/06/03 11:11:42;;;;;;;0.70;0.20;;;24.40;99.90;;;;;;5015605;28;20452;-73
2022/06/03 11:14:38;;;;;;;0.70;0.20;;;24.50;99.90;;;;;;5015122;28;20454;-78
2022/06/03 11:17:11;;;;;;;0.70;0.10;;;24.60;99.90;;;;;;5002389;28;20539;-75
2022/06/03 11:19:44;;;;;;;0.70;0.20;;;24.80;99.90;;;;;;5014512;28;20567;-75
2022/06/03 11:22:19;;;;;;;0.70;0.10;;;24.80;99.90;;;;;;5011929;28;20819;-75
2022/06/03 11:24:53;;;;;;;0.70;0.10;;;24.90;99.90;;;;;;5017573;28;20995;-78
2022/06/03 11:27:25;;;;;;;0.70;0.20;;;25.20;99.90;;;;;;5016989;28;20486;-75
2022/06/03 11:29:58;;;;;;;0.70;0.20;;;25.20;99.90;;;;;;5025221;28;20454;-76
2022/06/03 11:32:29;;;;;;;0.70;0.10;;;25.20;99.90;;;;;;5016498;28;20452;-73
2022/06/03 11:35:01;;;;;;;0.70;0.20;;;25.20;99.90;;;;;;5018124;28;20432;-75
2022/06/03 11:37:34;;;;;;;0.70;0.10;;;25.20;99.90;;;;;;5035756;28;20471;-73
2022/06/03 11:40:09;;;;;;;0.70;0.10;;;25.20;99.90;;;;;;5017250;28;20567;-76
2022/06/03 11:42:45;;;;;;;0.70;0.13;;;25.30;99.90;;;;;;5017978;28;20900;-74
2022/06/03 11:45:17;;;;;;;0.70;0.10;;;25.40;99.90;;;;;;5032344;28;20860;-75
2022/06/03 11:47:52;;;;;;;0.70;0.20;;;25.60;99.90;;;;;;5021651;28;20562;-73
2022/06/03 11:50:24;;;;;;;0.70;0.20;;;25.90;99.90;;;;;;5026298;28;20443;-76
2022/06/03 11:52:54;;;;;;;0.70;0.20;;;25.90;99.90;;;;;;5016198;28;20452;-72
2022/06/03 11:55:26;;;;;;;0.70;0.20;;;25.90;99.90;;;;;;5020596;28;20452;-74
2022/06/03 11:58:01;;;;;;;0.70;0.10;;;26.20;99.90;;;;;;5024665;28;20543;-74
2022/06/03 12:00:34;;;;;;;0.70;0.10;;;26.20;99.90;;;;;;5020110;28;20558;-72
2022/06/03 12:03:13;;;;;;;0.70;0.13;;;26.30;99.90;;;;;;5023202;28;20862;-74
2022/06/03 12:05:48;;;;;;;0.70;0.10;;;26.30;99.90;;;;;;5031626;28;20554;-75
2022/06/03 12:08:22;;;;;;;0.70;0.10;;;26.30;99.90;;;;;;5035327;28;20541;-74
2022/06/03 12:10:58;;;;;;;0.70;0.20;;;26.60;99.90;;;;;;5022400;28;20452;-75
2022/06/03 12:13:29;;;;;;;0.70;0.10;;;26.70;99.90;;;;;;5020424;28;20444;-73
2022/06/03 12:16:03;;;;;;;0.70;0.20;;;27.00;99.90;;;;;;5018028;28;20471;-73
2022/06/03 12:19:01;;;;;;;0.70;0.10;;;27.00;99.90;;;;;;5029849;28;20458;-75
2022/06/03 12:21:50;;;;;;;0.70;0.10;;;27.20;99.90;;;;;;5037283;28;20443;-74
2022/06/03 12:24:40;;;;;;;0.70;0.10;;;27.20;99.90;;;;;;5035837;28;20443;-74
2022/06/03 12:27:17;;;;;;;0.70;0.10;;;27.20;99.90;;;;;;5017267;28;20888;-76
2022/06/03 12:29:56;;;;;;;0.70;0.20;;;27.20;99.90;;;;;;5022658;28;20474;-76
2022/06/03 12:32:32;;;;;;;0.70;0.20;;;27.20;99.90;;;;;;5016785;28;20441;-74
2022/06/03 12:35:38;;;;;;;0.70;0.20;;;27.30;99.90;;;;;;5014839;28;20504;-74
2022/06/03 12:38:28;;;;;;;0.70;0.10;;;27.30;99.90;;;;;;5002435;28;20472;-75
2022/06/03 12:40:57;;;;;;;0.70;0.10;;;27.30;99.90;;;;;;5027424;28;20575;-75
2022/06/03 12:43:32;;;;;;;0.70;0.10;;;27.30;99.90;;;;;;5012466;28;20452;-75
2022/06/03 12:46:02;;;;;;;0.70;0.20;;;27.20;99.90;;;;;;5016288;28;20475;-77
2022/06/03 12:48:48;;;;;;;0.70;0.20;;;27.20;99.90;;;;;;5015798;28;20534;-75
2022/06/03 12:51:25;;;;;;;0.70;0.10;;;27.30;99.90;;;;;;5015836;28;20478;-77
2022/06/03 12:53:56;;;;;;;0.70;0.20;;;27.40;99.90;;;;;;5016560;28;21058;-75
2022/06/03 12:56:36;;;;;;;0.70;0.10;;;27.40;99.90;;;;;;5017910;28;20507;-73
2022/06/03 12:59:16;;;;;;;0.70;0.10;;;27.40;99.90;;;;;;5017203;28;20478;-73
2022/06/03 13:01:50;;;;;;;0.70;0.10;;;27.50;99.90;;;;;;5015762;28;20484;-76
2022/06/03 13:05:03;;;;;;;0.70;0.10;;;27.50;99.90;;;;;;5031909;28;20459;-76
2022/06/03 13:07:39;;;;;;;0.70;0.20;;;27.60;99.90;;;;;;5035823;28;20558;-76
2022/06/03 13:10:29;;;;;;;0.70;0.10;;;27.70;99.90;;;;;;5018497;28;20456;-76
2022/06/03 13:13:35;;;;;;;0.70;0.20;;;27.70;99.90;;;;;;5017951;28;20495;-74
2022/06/03 13:16:42;;;;;;;0.70;0.20;;;27.80;99.90;;;;;;5000089;28;20971;-74
2022/06/03 13:19:50;;;;;;;0.70;0.10;;;27.80;99.90;;;;;;4997826;28;20472;-74
2022/06/03 13:22:20;;;;;;;0.70;0.10;;;27.80;99.90;;;;;;5019737;28;20560;-74
2022/06/03 13:25:22;;;;;;;0.70;0.20;;;27.60;99.90;;;;;;5017520;28;20452;-76
2022/06/03 13:28:07;;;;;;;0.70;0.10;;;27.50;99.90;;;;;;5020043;28;20466;-75
2022/06/03 13:30:36;;;;;;;0.70;0.10;;;27.50;99.90;;;;;;5027498;28;20455;-75
2022/06/03 13:33:20;;;;;;;0.70;0.10;;;27.40;99.90;;;;;;5023539;28;20452;-74
2022/06/03 13:36:11;;;;;;;0.70;0.10;;;27.40;99.90;;;;;;5016484;28;20924;-75
2022/06/03 13:38:43;;;;;;;0.70;0.10;;;27.40;99.90;;;;;;5014089;28;20803;-77
2022/06/03 13:44:10;;;;;;;0.70;0.10;;;27.40;99.90;;;;;;5033873;28;20457;-75
2022/06/03 13:46:39;;;;;;;0.70;0.10;;;27.40;99.90;;;;;;5032358;28;20485;-75
2022/06/03 13:49:22;;;;;;;0.70;0.10;;;27.40;99.90;;;;;;5018004;28;20468;-77
2022/06/03 13:52:05;;;;;;;0.70;0.10;;;27.40;99.90;;;;;;5015418;28;20468;-74
2022/06/03 13:54:48;;;;;;;0.70;0.10;;;27.30;99.90;;;;;;5014105;28;20516;-74
2022/06/03 13:57:27;;;;;;;0.70;0.10;;;27.20;99.90;;;;;;5029913;28;20489;-74
2022/06/03 14:00:20;;;;;;;0.70;0.20;;;27.20;99.90;;;;;;5014496;28;20452;-76
2022/06/03 14:03:06;;;;;;;0.70;0.20;;;27.10;99.90;;;;;;5022523;28;20452;-75
2022/06/03 14:05:41;;;;;;;0.73;0.17;;;27.00;99.90;;;;;;5018877;28;20453;-76
2022/06/03 14:08:16;;;;;;;0.90;0.73;;;27.00;99.90;;;;;;5012406;28;20443;-76
2022/06/03 14:10:49;;;;;;;0.70;0.20;;;26.90;99.90;;;;;;5010963;28;20452;-78
2022/06/03 14:13:25;;;;;;;0.70;0.10;;;26.90;99.90;;;;;;5014897;28;20647;-74
2022/06/03 14:16:01;;;;;;;0.70;0.10;;;26.80;99.90;;;;;;5014223;28;20562;-74
2022/06/03 14:18:50;;;;;;;0.70;0.10;;;26.70;99.90;;;;;;5015127;28;20869;-74
2022/06/03 14:21:45;;;;;;;0.70;0.10;;;26.70;99.90;;;;;;5010560;28;20477;-76
2022/06/03 14:24:20;;;;;;;0.70;0.10;;;26.60;99.90;;;;;;5008566;28;20463;-74
2022/06/03 14:26:52;;;;;;;0.70;0.10;;;26.50;99.90;;;;;;5008391;28;20876;-74
2022/06/03 14:29:26;;;;;;;0.70;0.10;;;26.40;99.90;;;;;;5009031;28;20472;-75
2022/06/03 14:31:58;;;;;;;0.70;0.13;;;26.40;99.90;;;;;;5021919;28;20454;-75
2022/06/03 14:34:30;;;;;;;0.70;0.17;;;26.30;99.90;;;;;;5011405;28;20466;-74
2022/06/03 14:37:03;;;;;;;0.70;0.10;;;26.20;99.90;;;;;;5006982;28;20590;-75
2022/06/03 14:39:35;;;;;;;0.70;0.10;;;26.20;99.90;;;;;;5015652;28;20451;-74
2022/06/03 14:42:08;;;;;;;0.70;0.17;;;26.10;99.90;;;;;;5011702;28;20476;-75
2022/06/03 14:44:39;;;;;;;0.70;0.10;;;26.10;99.90;;;;;;5015209;28;20837;-75
2022/06/03 14:47:12;;;;;;;0.70;0.13;;;26.00;99.90;;;;;;5014916;28;20476;-74
2022/06/03 14:49:44;;;;;;;0.70;0.10;;;26.00;99.90;;;;;;5017093;28;20447;-76
2022/06/03 14:52:19;;;;;;;0.70;0.10;;;25.90;99.90;;;;;;5016119;28;20468;-74